Time;durP1;ratioP1;P1;durP2;ratioP2;P2;SDS_P1;SDS_P2;PMS_P1;PMS_P2;Temp;Humidity;BMP_temperature;BMP_pressure;BME280_temperature;BME280_humidity;BME280_pressure;Samples;Min_cycle;Max_cycle;Signal;HPM_P1;HPM_P2
2023/05/02 00:02:25;;;;;;;0.00;0.00;;;;;;;-145.06;100.00;94796.97;10369501;28;20018;-75
2023/05/02 00:07:25;;;;;;;0.10;0.10;;;;;;;-145.06;100.00;94774.47;10384347;28;20114;-76
2023/05/02 00:12:26;;;;;;;0.10;0.10;;;;;;;-145.06;100.00;94758.09;10370420;28;20017;-76
2023/05/02 00:17:26;;;;;;;0.10;0.10;;;;;;;-145.06;100.00;94772.41;10370579;28;20032;-76
2023/05/02 00:22:27;;;;;;;0.10;0.10;;;;;;;-145.06;100.00;94805.16;10369708;28;20025;-76
2023/05/02 00:27:28;;;;;;;0.10;0.10;;;;;;;-145.06;100.00;94805.16;10370386;28;20120;-75
2023/05/02 00:32:29;;;;;;;0.00;0.00;;;;;;;-145.06;100.00;94835.84;10369445;28;20097;-75
2023/05/02 00:37:29;;;;;;;0.10;0.10;;;;;;;-145.06;100.00;94821.50;10368334;28;20013;-76
2023/05/02 00:42:33;;;;;;;0.00;0.00;;;;;;;-145.06;100.00;94819.47;10369510;28;20022;-75
2023/05/02 00:47:34;;;;;;;0.00;0.00;;;;;;;-145.06;100.00;94856.28;10368370;28;20601;-76
2023/05/02 00:52:35;;;;;;;0.00;0.00;;;;;;;-145.06;100.00;94901.31;10368517;28;20033;-76
2023/05/02 00:57:36;;;;;;;0.08;0.08;;;;;;;-145.06;100.00;94903.34;10369291;28;20507;-77
2023/05/02 01:08:04;;;;;;;0.10;0.10;;;;;;;-145.06;100.00;94954.50;10377910;28;20057;-76
2023/05/02 01:13:19;;;;;;;0.10;0.10;;;;;;;-145.06;100.00;94944.28;10361720;28;20081;-77
2023/05/02 01:18:23;;;;;;;0.08;0.08;;;;;;;-145.06;100.00;94983.16;10333058;28;20217;-75
2023/05/02 01:23:40;;;;;;;0.00;0.00;;;;;;;-145.06;100.00;94983.16;10341941;28;20026;-77
2023/05/02 01:28:54;;;;;;;0.05;0.05;;;;;;;-145.06;100.00;95003.63;10373257;28;20029;-75
2023/05/02 01:33:57;;;;;;;0.10;0.10;;;;;;;-145.06;100.00;94966.78;10372815;28;20030;-76
2023/05/02 01:39:00;;;;;;;0.00;0.00;;;;;;;-145.06;100.00;94962.69;10405072;28;20036;-76
2023/05/02 01:44:02;;;;;;;0.10;0.10;;;;;;;-145.06;100.00;95017.94;10412654;28;20112;-75
2023/05/02 01:49:05;;;;;;;0.00;0.00;;;;;;;-145.06;100.00;94974.97;10372896;28;20057;-75
2023/05/02 01:54:07;;;;;;;0.00;0.00;;;;;;;-145.06;100.00;95022.03;10366482;28;20030;-77
2023/05/02 01:59:15;;;;;;;0.00;0.00;;;;;;;-145.06;100.00;95052.72;10359234;28;20424;-77
2023/05/02 02:04:19;;;;;;;0.10;0.10;;;;;;;-145.06;100.00;95054.75;10364256;28;20049;-76
2023/05/02 02:09:20;;;;;;;0.10;0.10;;;;;;;-145.06;100.00;95024.06;10366338;28;20025;-77
2023/05/02 02:14:29;;;;;;;0.10;0.10;;;;;;;-145.06;100.00;95024.06;10345104;28;20038;-76
2023/05/02 02:19:32;;;;;;;0.10;0.10;;;;;;;-145.06;100.00;95017.94;10349928;28;20501;-77
2023/05/02 02:24:35;;;;;;;0.00;0.00;;;;;;;-145.06;100.00;95007.72;10341184;28;20030;-77
2023/05/02 02:29:35;;;;;;;0.00;0.00;;;;;;;-145.06;100.00;95019.97;10367879;28;20026;-77
2023/05/02 02:34:36;;;;;;;0.00;0.00;;;;;;;-145.06;100.00;94974.97;10352033;28;20474;-77
2023/05/02 02:40:01;;;;;;;0.00;0.00;;;;;;;-145.06;100.00;94987.25;10337793;28;20026;-77
2023/05/02 02:45:16;;;;;;;0.00;0.00;;;;;;;-145.06;100.00;94977.00;10351043;28;20026;-77
2023/05/02 02:50:31;;;;;;;0.00;0.00;;;;;;;-145.06;100.00;94938.13;10363066;28;20459;-77
2023/05/02 02:55:46;;;;;;;0.00;0.00;;;;;;;-145.06;100.00;94901.31;10340463;28;20092;-77
2023/05/02 03:00:48;;;;;;;0.03;0.03;;;;;;;-145.06;100.00;94905.41;10329080;28;20042;-76
2023/05/02 03:05:49;;;;;;;0.10;0.10;;;;;;;-145.06;100.00;94858.34;10346565;28;20085;-75
2023/05/02 03:10:50;;;;;;;0.00;0.00;;;;;;;-145.06;100.00;94929.94;10352245;28;20079;-77
2023/05/02 03:15:50;;;;;;;0.08;0.08;;;;;;;-145.06;100.00;94860.38;10362088;28;20031;-77
2023/05/02 03:20:51;;;;;;;0.00;0.00;;;;;;;-145.06;100.00;94893.13;10352737;28;20029;-77
2023/05/02 03:25:51;;;;;;;0.00;0.00;;;;;;;-145.06;100.00;94846.06;10353229;28;20026;-77
2023/05/02 03:30:52;;;;;;;0.00;0.00;;;;;;;-145.06;100.00;94850.16;10371570;28;20032;-75
2023/05/02 03:35:52;;;;;;;0.00;0.00;;;;;;;-145.06;100.00;94819.47;10375138;28;20541;-74
2023/05/02 03:40:56;;;;;;;0.00;0.00;;;;;;;-145.06;100.00;94792.88;10396742;28;20480;-76
2023/05/02 03:45:57;;;;;;;0.00;0.00;;;;;;;-145.06;100.00;94860.38;10376986;28;20034;-77
2023/05/02 03:50:57;;;;;;;0.00;0.00;;;;;;;-145.06;100.00;94837.88;10376793;28;20021;-75
2023/05/02 03:55:57;;;;;;;0.00;0.00;;;;;;;-145.06;100.00;94841.97;10365285;28;20022;-76
2023/05/02 04:00:57;;;;;;;0.00;0.00;;;;;;;-145.06;100.00;94835.84;10347818;28;20065;-77
2023/05/02 04:05:58;;;;;;;0.00;0.00;;;;;;;-145.06;100.00;94813.34;10367408;28;20772;-76
2023/05/02 04:10:58;;;;;;;0.00;0.00;;;;;;;-145.06;100.00;94760.13;10369400;28;20022;-76
2023/05/02 04:15:58;;;;;;;0.00;0.00;;;;;;;-145.06;100.00;94653.75;10366734;28;20025;-77
2023/05/02 04:20:59;;;;;;;0.00;0.00;;;;;;;-145.06;100.00;94682.41;10375243;28;20018;-77
2023/05/02 04:25:59;;;;;;;0.00;0.00;;;;;;;-145.06;100.00;94737.63;10368227;28;20280;-76
2023/05/02 04:30:59;;;;;;;0.10;0.10;;;;;;;-145.06;100.00;94713.09;10358876;28;20503;-77
2023/05/02 04:36:00;;;;;;;0.00;0.00;;;;;;;-145.06;100.00;94682.41;10362451;28;20034;-77
2023/05/02 04:41:00;;;;;;;0.00;0.00;;;;;;;-145.06;100.00;94706.94;10360110;28;20370;-76
2023/05/02 04:46:01;;;;;;;0.00;0.00;;;;;;;-145.06;100.00;94747.84;10379460;28;20038;-77
2023/05/02 04:51:01;;;;;;;0.00;0.00;;;;;;;-145.06;100.00;94727.41;10366397;28;20452;-77
2023/05/02 04:56:02;;;;;;;0.00;0.00;;;;;;;-145.06;100.00;94713.09;10376806;28;20030;-77
2023/05/02 05:01:02;;;;;;;0.00;0.00;;;;;;;-145.06;100.00;94778.56;10364286;28;20072;-75
2023/05/02 05:06:03;;;;;;;0.00;0.00;;;;;;;-145.06;100.00;94735.59;10361334;28;20057;-75
2023/05/02 05:11:04;;;;;;;0.00;0.00;;;;;;;-145.06;100.00;94760.13;10367861;28;20269;-76
2023/05/02 05:16:04;;;;;;;0.00;0.00;;;;;;;-145.06;100.00;94772.41;10344929;28;20030;-76
2023/05/02 05:21:09;;;;;;;0.00;0.00;;;;;;;-145.06;100.00;94735.59;10370051;28;20345;-77
2023/05/02 05:26:14;;;;;;;0.00;0.00;;;;;;;-145.06;100.00;94680.34;10375025;28;20033;-77
2023/05/02 05:31:15;;;;;;;0.00;0.00;;;;;;;-145.06;100.00;94606.69;10362529;28;20114;-73
2023/05/02 05:36:16;;;;;;;0.00;0.00;;;;;;;-145.06;100.00;94590.31;10345876;28;20018;-77
2023/05/02 05:41:16;;;;;;;0.00;0.00;;;;;;;-145.06;100.00;94545.31;10368951;28;20408;-74
2023/05/02 05:46:17;;;;;;;0.00;0.00;;;;;;;-145.06;100.00;94447.13;10364353;28;20022;-75
2023/05/02 05:51:17;;;;;;;0.10;0.10;;;;;;;-145.06;100.00;94461.44;10356398;28;20072;-76
2023/05/02 05:56:17;;;;;;;0.00;0.00;;;;;;;-145.06;98.94;94418.47;10350488;28;20348;-75
2023/05/02 06:01:17;;;;;;;0.00;0.00;;;;;;;-145.06;97.30;94148.44;10349228;28;20486;-76
2023/05/02 06:06:18;;;;;;;0.00;0.00;;;;;;;-145.06;95.35;93964.34;10369503;28;20401;-75
2023/05/02 06:11:18;;;;;;;0.00;0.00;;;;;;;-145.06;90.35;93853.88;10366176;28;20022;-75
2023/05/02 06:16:18;;;;;;;0.00;0.00;;;;;;;-145.06;91.10;93874.34;10364494;28;20031;-76
2023/05/02 06:21:19;;;;;;;0.00;0.00;;;;;;;-145.06;88.65;93812.97;10356996;28;20776;-76
2023/05/02 06:26:20;;;;;;;0.00;0.00;;;;;;;-145.06;88.99;93853.88;10349043;28;20028;-76
2023/05/02 06:31:20;;;;;;;0.00;0.00;;;;;;;-145.06;85.77;93792.53;10368418;28;20109;-76
2023/05/02 06:36:21;;;;;;;0.00;0.00;;;;;;;-145.06;85.26;93712.75;10369444;28;20112;-77
2023/05/02 06:41:22;;;;;;;0.00;0.00;;;;;;;-145.06;78.82;93585.94;10363866;28;20277;-77
2023/05/02 06:46:22;;;;;;;0.00;0.00;;;;;;;-145.06;73.80;93440.72;10347046;28;20038;-76
2023/05/02 06:51:22;;;;;;;0.00;0.00;;;;;;;-145.06;75.50;93534.81;10364379;28;20029;-77
2023/05/02 06:56:24;;;;;;;0.00;0.00;;;;;;;-145.06;76.63;93563.44;10382917;28;20026;-77
2023/05/02 07:01:25;;;;;;;0.00;0.00;;;;;;;-145.06;79.50;93620.72;10360334;28;20071;-77
2023/05/02 07:06:25;;;;;;;0.00;0.00;;;;;;;-145.06;71.17;93497.97;10389879;22;20045;-76
2023/05/02 07:11:26;;;;;;;0.00;0.00;;;;;;;-145.06;70.67;93487.75;10382789;28;20488;-76
2023/05/02 07:16:27;;;;;;;0.00;0.00;;;;;;;-145.06;73.16;93506.16;10370153;28;20018;-75
2023/05/02 07:21:27;;;;;;;0.00;0.00;;;;;;;-145.06;72.49;93520.50;10372749;28;20072;-75
2023/05/02 07:26:27;;;;;;;0.00;0.00;;;;;;;-145.06;77.40;93596.16;10376535;28;20084;-75
2023/05/02 07:31:28;;;;;;;0.00;0.00;;;;;;;-145.06;78.01;93528.66;10373138;28;20447;-76
2023/05/02 07:36:28;;;;;;;0.10;0.10;;;;;;;-145.06;72.82;93311.88;10396769;28;20029;-75
2023/05/02 07:41:28;;;;;;;0.05;0.05;;;;;;;-145.06;71.81;93371.19;10378336;28;20026;-76
2023/05/02 07:46:29;;;;;;;0.10;0.10;;;;;;;-145.06;65.01;93117.56;10390465;28;20551;-76
2023/05/02 07:51:29;;;;;;;0.00;0.00;;;;;;;-145.06;63.72;93101.22;10376588;28;20464;-76
2023/05/02 07:56:29;;;;;;;0.00;0.00;;;;;;;-145.06;63.78;93240.28;10380008;28;20272;-76
2023/05/02 08:01:30;;;;;;;0.00;0.00;;;;;;;-145.06;64.03;93279.16;10388505;28;20014;-76
2023/05/02 08:06:32;;;;;;;0.08;0.08;;;;;;;-145.06;65.10;93328.22;10373292;28;20481;-76
2023/05/02 08:11:32;;;;;;;0.00;0.00;;;;;;;-145.06;66.57;93225.97;10380445;28;20045;-76
2023/05/02 08:16:32;;;;;;;0.10;0.10;;;;;;;-145.06;63.51;93240.28;10389665;28;20032;-75
2023/05/02 08:21:33;;;;;;;0.10;0.10;;;;;;;-145.06;61.46;93232.09;10394231;28;20064;-75
2023/05/02 08:26:33;;;;;;;0.05;0.05;;;;;;;-145.06;62.98;93091.00;10396187;28;20360;-76
2023/05/02 08:31:33;;;;;;;0.10;0.10;;;;;;;-145.06;61.84;93119.63;10402254;28;20443;-76
2023/05/02 08:36:34;;;;;;;0.10;0.10;;;;;;;-145.06;60.93;93133.94;10403364;28;20366;-76
2023/05/02 08:41:34;;;;;;;0.10;0.10;;;;;;;-145.06;60.00;93070.53;10378283;28;20022;-76
2023/05/02 08:46:35;;;;;;;0.10;0.10;;;;;;;-145.06;60.74;93105.31;10371952;28;20481;-76
2023/05/02 08:51:36;;;;;;;0.10;0.10;;;;;;;-145.06;63.17;92749.47;10379608;28;20009;-76
2023/05/02 08:56:37;;;;;;;0.10;0.10;;;;;;;-145.06;62.83;92620.66;10385796;28;20029;-76
2023/05/02 09:01:40;;;;;;;0.10;0.10;;;;;;;-145.06;62.09;93119.63;10386439;28;20013;-76
2023/05/02 09:06:40;;;;;;;0.10;0.10;;;;;;;-145.06;58.25;93009.19;10404255;28;20496;-76
2023/05/02 09:11:44;;;;;;;0.10;0.10;;;;;;;-145.06;57.96;92919.22;10384866;28;20026;-77
2023/05/02 09:16:46;;;;;;;0.10;0.10;;;;;;;-145.06;54.56;93084.84;10384385;28;20029;-77
2023/05/02 09:21:46;;;;;;;0.10;0.10;;;;;;;-145.06;52.80;93178.94;10376415;28;20034;-76
2023/05/02 09:27:01;;;;;;;0.10;0.10;;;;;;;-145.06;53.68;93246.41;10378856;28;20033;-76
2023/05/02 09:32:02;;;;;;;0.10;0.10;;;;;;;-145.06;54.40;92731.06;10387413;28;20013;-77
2023/05/02 09:37:04;;;;;;;0.10;0.10;;;;;;;-145.06;54.33;92673.81;10395306;28;20029;-76
2023/05/02 09:42:04;;;;;;;0.03;0.03;;;;;;;-145.06;50.30;93056.22;10379650;28;20029;-77
2023/05/02 09:47:07;;;;;;;0.07;0.07;;;;;;;-145.06;52.98;93207.56;10377092;28;20026;-77
2023/05/02 09:52:12;;;;;;;0.10;0.10;;;;;;;-145.06;61.29;93440.72;10394654;28;20265;-77
2023/05/02 09:57:13;;;;;;;0.10;0.10;;;;;;;-145.06;65.79;93491.84;10385433;28;20504;-77
2023/05/02 10:02:13;;;;;;;0.10;0.10;;;;;;;-145.06;65.73;93270.97;10376677;28;20099;-78
2023/05/02 10:07:16;;;;;;;0.10;0.10;;;;;;;-145.06;63.09;93115.53;10396000;28;20057;-76
2023/05/02 10:12:20;;;;;;;0.00;0.00;;;;;;;-145.06;55.69;92663.59;10382912;28;20261;-76
2023/05/02 10:17:30;;;;;;;;;;;;;;;-145.06;53.99;93111.44;10393092;28;20489;-76
2023/05/02 10:22:32;;;;;;;0.05;0.05;;;;;;;-145.06;56.21;93293.47;10375576;28;19924;-76
2023/05/02 10:27:32;;;;;;;0.03;0.03;;;;;;;-145.06;57.02;93244.38;10383858;28;20029;-76
2023/05/02 10:32:33;;;;;;;0.10;0.10;;;;;;;-145.06;55.54;93117.56;10384240;28;20404;-76
2023/05/02 10:37:37;;;;;;;0.10;0.10;;;;;;;-145.06;56.49;93215.75;10399656;28;20373;-76
2023/05/02 10:42:44;;;;;;;0.10;0.10;;;;;;;-145.06;59.21;93381.41;10414724;28;20020;-76
2023/05/02 10:47:44;;;;;;;0.10;0.10;;;;;;;-145.06;65.12;93438.69;10382440;28;20416;-76
2023/05/02 10:52:45;;;;;;;0.10;0.10;;;;;;;-145.06;63.53;93397.78;10388067;28;20017;-77
2023/05/02 10:57:57;;;;;;;0.10;0.10;;;;;;;-145.06;62.05;93277.09;10382630;28;20057;-77
2023/05/02 11:02:58;;;;;;;0.10;0.10;;;;;;;-145.06;61.96;93246.41;10394801;28;20022;-77
2023/05/02 11:08:14;;;;;;;0.08;0.08;;;;;;;-145.06;58.56;93191.19;10379176;28;20040;-75
2023/05/02 11:13:14;;;;;;;0.10;0.10;;;;;;;-145.06;56.24;93160.53;10376806;28;20072;-76
2023/05/02 11:18:15;;;;;;;0.00;0.00;;;;;;;-145.06;56.47;93127.81;10383093;28;20079;-76
2023/05/02 11:28:35;;;;;;;0.10;0.10;;;;;;;-145.06;53.53;93215.75;10378729;28;20022;-76
2023/05/02 11:33:35;;;;;;;0.10;0.10;;;;;;;-145.06;55.04;93176.88;10367055;28;20112;-76
2023/05/02 11:38:37;;;;;;;0.10;0.10;;;;;;;-145.06;53.25;93180.97;10388027;28;20362;-77
2023/05/02 11:43:37;;;;;;;0.10;0.10;;;;;;;-145.06;49.92;93260.75;10383783;28;20013;-77
2023/05/02 11:48:38;;;;;;;0.10;0.10;;;;;;;-145.06;51.84;92939.66;10383766;28;20030;-77
2023/05/02 11:53:40;;;;;;;0.10;0.10;;;;;;;-145.06;49.14;92943.75;10408659;28;20010;-77
2023/05/02 11:58:40;;;;;;;0.10;0.10;;;;;;;-145.06;48.54;92968.28;10409346;28;20060;-77
2023/05/02 12:03:41;;;;;;;0.08;0.08;;;;;;;-145.06;50.72;93082.81;10385751;28;20080;-77
2023/05/02 12:08:43;;;;;;;0.10;0.10;;;;;;;-145.06;49.90;93060.31;10396603;28;20199;-77
2023/05/02 12:13:48;;;;;;;0.10;0.10;;;;;;;-145.06;51.19;93230.06;10386527;28;20021;-77
2023/05/02 12:18:49;;;;;;;0.10;0.10;;;;;;;-145.06;50.83;93281.19;10404852;28;20047;-77
2023/05/02 12:23:49;;;;;;;0.10;0.10;;;;;;;-145.06;52.35;93228.00;10387792;28;20108;-77
2023/05/02 12:28:51;;;;;;;0.10;0.10;;;;;;;-145.06;50.95;93225.97;10386271;28;20038;-76
2023/05/02 12:33:56;;;;;;;0.10;0.10;;;;;;;-145.06;52.53;93338.47;10387020;28;20026;-76
2023/05/02 12:38:58;;;;;;;0.10;0.10;;;;;;;-145.06;55.95;93318.00;10395288;28;20021;-76
2023/05/02 12:43:59;;;;;;;0.10;0.10;;;;;;;-145.06;56.03;93326.19;10405481;28;20113;-76
2023/05/02 12:49:08;;;;;;;0.10;0.10;;;;;;;-145.06;59.29;93344.59;10384555;28;20030;-77
2023/05/02 12:54:19;;;;;;;0.00;0.00;;;;;;;-145.06;59.65;93248.47;10392220;28;20018;-77
2023/05/02 12:59:30;;;;;;;0.10;0.10;;;;;;;-145.06;58.62;93375.28;10379774;28;20021;-77
2023/05/02 13:09:33;;;;;;;0.10;0.10;;;;;;;-145.06;55.30;93211.66;10416288;28;20068;-75
2023/05/02 13:14:34;;;;;;;0.00;0.00;;;;;;;-145.06;54.38;93256.66;10410751;28;20033;-75
2023/05/02 13:19:34;;;;;;;0.00;0.00;;;;;;;-145.06;55.59;93230.06;10409503;28;20028;-76
2023/05/02 13:24:34;;;;;;;0.10;0.10;;;;;;;-145.06;55.09;93223.94;10411594;28;20036;-76
2023/05/02 13:29:35;;;;;;;0.10;0.10;;;;;;;-145.06;56.71;93299.59;10410580;28;20021;-76
2023/05/02 13:34:35;;;;;;;0.10;0.10;;;;;;;-145.06;58.23;93289.38;10410966;28;20033;-76
2023/05/02 13:39:36;;;;;;;0.10;0.10;;;;;;;-145.06;58.51;93324.13;10408940;28;20487;-75
2023/05/02 13:44:36;;;;;;;0.10;0.10;;;;;;;-145.06;60.41;93408.00;10402265;28;20344;-75
2023/05/02 13:49:37;;;;;;;0.10;0.10;;;;;;;-145.06;59.87;93309.81;10409021;28;20389;-75
2023/05/02 13:54:37;;;;;;;0.10;0.10;;;;;;;-145.06;58.12;93299.59;10410159;28;20080;-76
2023/05/02 13:59:37;;;;;;;0.10;0.10;;;;;;;-145.06;57.40;93256.66;10409509;28;20113;-75
2023/05/02 14:04:38;;;;;;;0.10;0.10;;;;;;;-145.06;57.71;93250.50;10402449;28;20274;-75
2023/05/02 14:09:38;;;;;;;0.10;0.10;;;;;;;-145.06;56.81;93230.06;10408891;28;20460;-75
2023/05/02 14:14:38;;;;;;;0.10;0.10;;;;;;;-145.06;56.37;93465.25;10388644;28;20053;-75
2023/05/02 14:19:38;;;;;;;0.00;0.00;;;;;;;-145.06;58.00;93223.94;10400879;28;20111;-75
2023/05/02 14:24:39;;;;;;;0.10;0.10;;;;;;;-145.06;58.00;93358.91;10393014;28;20026;-76
2023/05/02 14:29:39;;;;;;;0.10;0.10;;;;;;;-145.06;57.46;93367.09;10395128;28;20029;-75
2023/05/02 14:34:40;;;;;;;0.10;0.10;;;;;;;-145.06;57.37;93379.38;10407439;28;20399;-75
2023/05/02 14:39:41;;;;;;;0.10;0.10;;;;;;;-145.06;56.71;93369.13;10400164;28;20692;-75
2023/05/02 14:44:42;;;;;;;0.10;0.10;;;;;;;-145.06;58.19;93465.25;10399375;28;20496;-75
2023/05/02 14:49:42;;;;;;;0.10;0.10;;;;;;;-145.06;61.24;93424.34;10386546;28;20041;-75
2023/05/02 14:54:42;;;;;;;0.10;0.10;;;;;;;-145.06;63.86;93455.03;10398825;28;20108;-75
2023/05/02 14:59:43;;;;;;;0.00;0.00;;;;;;;-145.06;62.29;93405.94;10407501;28;20260;-75
2023/05/02 15:04:43;;;;;;;0.10;0.10;;;;;;;-145.06;60.44;93477.53;10394615;28;20045;-75
2023/05/02 15:09:44;;;;;;;0.10;0.10;;;;;;;-145.06;62.15;93565.47;10402397;28;20387;-76
2023/05/02 15:14:44;;;;;;;0.10;0.10;;;;;;;-145.06;62.19;93538.91;10402469;28;20055;-75
2023/05/02 15:19:45;;;;;;;0.10;0.10;;;;;;;-145.06;60.52;93432.53;10397631;28;20025;-75
2023/05/02 15:24:45;;;;;;;0.10;0.10;;;;;;;-145.06;61.48;93371.19;10396639;28;20025;-76
2023/05/02 15:29:45;;;;;;;0.10;0.10;;;;;;;-145.06;54.62;93303.69;10387419;28;20028;-75
2023/05/02 15:34:46;;;;;;;0.00;0.00;;;;;;;-145.06;54.77;93424.34;10407110;28;20476;-75
2023/05/02 15:39:46;;;;;;;0.10;0.10;;;;;;;-145.06;55.37;93336.41;10406659;28;20112;-75
2023/05/02 15:44:46;;;;;;;0.00;0.00;;;;;;;-145.06;53.89;93483.66;10406690;28;20029;-75
2023/05/02 15:49:47;;;;;;;0.10;0.10;;;;;;;-145.06;54.46;93626.84;10406644;28;20029;-74
2023/05/02 15:54:47;;;;;;;0.10;0.10;;;;;;;-145.06;54.26;93608.44;10406693;28;20087;-76
2023/05/02 15:59:47;;;;;;;0.10;0.10;;;;;;;-145.06;55.52;93941.84;10406530;28;20132;-76
2023/05/02 16:04:47;;;;;;;0.00;0.00;;;;;;;-145.06;58.76;94166.84;10406273;28;20391;-76
2023/05/02 16:09:48;;;;;;;0.00;0.00;;;;;;;-145.06;57.27;93776.16;10406630;28;20392;-76
2023/05/02 16:14:48;;;;;;;0.00;0.00;;;;;;;-145.06;58.01;93596.16;10403356;28;20026;-76
2023/05/02 16:19:48;;;;;;;0.00;0.00;;;;;;;-145.06;59.62;93520.50;10406651;28;20033;-76
2023/05/02 16:24:49;;;;;;;0.03;0.03;;;;;;;-145.06;59.80;93600.25;10399888;28;20030;-76
2023/05/02 16:29:49;;;;;;;0.10;0.10;;;;;;;-145.06;58.58;93800.69;10399837;28;20243;-75
2023/05/02 16:34:50;;;;;;;0.00;0.00;;;;;;;-145.06;59.01;93592.06;10390594;28;20432;-76
2023/05/02 16:39:50;;;;;;;0.07;0.07;;;;;;;-145.06;61.15;93643.22;10398136;28;20441;-76
2023/05/02 16:44:51;;;;;;;0.00;0.00;;;;;;;-145.06;60.14;93712.75;10402625;28;20304;-76
2023/05/02 16:49:55;;;;;;;0.10;0.10;;;;;;;-145.06;60.59;93880.47;10388046;28;20106;-76
2023/05/02 16:54:56;;;;;;;0.00;0.00;;;;;;;-145.06;62.15;93708.66;10407951;28;20091;-76
2023/05/02 16:59:56;;;;;;;0.10;0.10;;;;;;;-145.06;62.68;94211.88;10404079;28;20095;-76
2023/05/02 17:04:57;;;;;;;0.00;0.00;;;;;;;-145.06;63.25;94269.13;10406898;28;20040;-76
2023/05/02 17:09:57;;;;;;;0.00;0.00;;;;;;;-145.06;60.34;93894.78;10387419;28;20031;-76
2023/05/02 17:14:58;;;;;;;0.00;0.00;;;;;;;-145.06;60.99;93841.63;10396811;28;20388;-76
2023/05/02 17:19:58;;;;;;;0.00;0.00;;;;;;;-145.06;60.91;93645.25;10403484;28;20334;-77
2023/05/02 17:24:59;;;;;;;0.03;0.03;;;;;;;-145.06;60.14;93692.28;10394210;28;20099;-76
2023/05/02 17:29:59;;;;;;;0.00;0.00;;;;;;;-145.06;58.81;93542.97;10411525;28;20032;-76
2023/05/02 17:34:59;;;;;;;0.00;0.00;;;;;;;-145.06;60.39;93573.66;10410539;28;20468;-76
2023/05/02 17:40:00;;;;;;;0.00;0.00;;;;;;;-145.06;59.82;93718.88;10402143;28;20021;-76
2023/05/02 17:45:01;;;;;;;0.00;0.00;;;;;;;-145.06;59.99;94177.09;10410492;28;20025;-76
2023/05/02 17:50:03;;;;;;;0.00;0.00;;;;;;;-145.06;61.88;94326.41;10410025;28;20021;-75
2023/05/02 17:55:04;;;;;;;0.00;0.00;;;;;;;-145.06;64.59;94318.25;10409805;28;20082;-76
2023/05/02 18:00:06;;;;;;;0.00;0.00;;;;;;;-145.06;65.65;94297.78;10393405;28;20040;-76
2023/05/02 18:05:08;;;;;;;0.00;0.00;;;;;;;-145.06;66.62;94361.19;10396586;28;20043;-75
2023/05/02 18:10:09;;;;;;;0.00;0.00;;;;;;;-145.06;67.50;94432.81;10393562;28;20045;-75
2023/05/02 18:15:10;;;;;;;0.00;0.00;;;;;;;-145.06;69.72;94498.25;10392959;28;20372;-75
2023/05/02 18:20:10;;;;;;;0.10;0.10;;;;;;;-145.06;73.03;94449.16;10406997;28;20025;-75
2023/05/02 18:25:11;;;;;;;0.00;0.00;;;;;;;-145.06;78.46;94545.31;10393083;28;20140;-75
2023/05/02 18:30:11;;;;;;;0.00;0.00;;;;;;;-145.06;82.02;94571.91;10398677;28;20124;-75
2023/05/02 18:35:11;;;;;;;0.00;0.00;;;;;;;-145.06;85.96;94602.59;10398575;28;20036;-75
2023/05/02 18:40:12;;;;;;;0.00;0.00;;;;;;;-145.06;87.61;94639.44;10401606;28;20052;-75
2023/05/02 18:45:12;;;;;;;0.00;0.00;;;;;;;-145.06;85.25;94614.88;10390813;28;20038;-76
2023/05/02 18:50:12;;;;;;;0.00;0.00;;;;;;;-145.06;85.24;94596.47;10391994;28;20256;-77
2023/05/02 18:55:13;;;;;;;0.00;0.00;;;;;;;-145.06;80.53;94582.16;10398812;28;20035;-75
2023/05/02 19:00:14;;;;;;;0.00;0.00;;;;;;;-145.06;81.27;94569.88;10399246;28;20034;-75
2023/05/02 19:05:14;;;;;;;0.00;0.00;;;;;;;-145.06;82.56;94573.97;10416767;23;20522;-76
2023/05/02 19:10:15;;;;;;;0.00;0.00;;;;;;;-145.06;84.68;94569.88;10400315;28;20036;-77
2023/05/02 19:15:15;;;;;;;0.00;0.00;;;;;;;-145.06;87.01;94612.84;10409466;28;20048;-76
2023/05/02 19:20:16;;;;;;;0.00;0.00;;;;;;;-145.06;88.71;94647.63;10401094;28;20053;-77
2023/05/02 19:25:16;;;;;;;0.00;0.00;;;;;;;-145.06;90.85;94631.25;10408631;28;20087;-77
2023/05/02 19:30:17;;;;;;;0.00;0.00;;;;;;;-145.06;94.06;94676.25;10399586;28;20036;-77
2023/05/02 19:35:18;;;;;;;0.00;0.00;;;;;;;-145.06;97.43;94659.88;10397564;28;20041;-77
2023/05/02 19:40:18;;;;;;;0.00;0.00;;;;;;;-145.06;100.00;94688.53;10409323;28;20591;-77
2023/05/02 19:45:18;;;;;;;0.00;0.00;;;;;;;-145.06;100.00;94684.44;10409228;28;20059;-76
2023/05/02 19:50:18;;;;;;;0.00;0.00;;;;;;;-145.06;100.00;94702.84;10406456;28;20036;-77
2023/05/02 19:55:19;;;;;;;0.00;0.00;;;;;;;-145.06;100.00;94745.81;10397539;28;20048;-77
2023/05/02 20:00:19;;;;;;;0.00;0.00;;;;;;;-145.06;100.00;94692.63;10399895;28;20561;-76
2023/05/02 20:05:20;;;;;;;0.00;0.00;;;;;;;-145.06;100.00;94709.00;10386576;28;20026;-76
2023/05/02 20:10:20;;;;;;;0.00;0.00;;;;;;;-145.06;100.00;94725.34;10392054;28;20029;-76
2023/05/02 20:15:21;;;;;;;0.00;0.00;;;;;;;-145.06;100.00;94729.44;10409045;28;20024;-77
2023/05/02 20:20:22;;;;;;;0.00;0.00;;;;;;;-145.06;100.00;94731.50;10401535;28;20692;-76
2023/05/02 20:25:22;;;;;;;0.00;0.00;;;;;;;-145.06;100.00;94723.31;10408710;28;20032;-76
2023/05/02 20:30:23;;;;;;;0.00;0.00;;;;;;;-145.06;100.00;94690.56;10403746;28;20030;-76
2023/05/02 20:35:24;;;;;;;0.00;0.00;;;;;;;-145.06;100.00;94729.44;10398841;28;20025;-77
2023/05/02 20:40:26;;;;;;;0.00;0.00;;;;;;;-145.06;100.00;94657.84;10400316;28;20379;-76
2023/05/02 20:45:26;;;;;;;0.00;0.00;;;;;;;-145.06;100.00;94704.91;10401563;28;20033;-77
2023/05/02 20:50:27;;;;;;;0.00;0.00;;;;;;;-145.06;100.00;94692.63;10406483;28;20014;-77
2023/05/02 20:55:27;;;;;;;0.00;0.00;;;;;;;-145.06;100.00;94700.81;10405114;28;20608;-76
2023/05/02 21:00:27;;;;;;;0.00;0.00;;;;;;;-145.06;100.00;94739.69;10405716;28;20026;-76
2023/05/02 21:05:28;;;;;;;0.00;0.00;;;;;;;-145.06;100.00;94760.13;10400946;28;20086;-77
2023/05/02 21:10:29;;;;;;;0.00;0.00;;;;;;;-145.06;100.00;94737.63;10403339;28;20036;-76
2023/05/02 21:15:34;;;;;;;0.00;0.00;;;;;;;-145.06;100.00;94725.34;10392420;28;20503;-76
2023/05/02 21:20:36;;;;;;;0.00;0.00;;;;;;;-145.06;100.00;94768.31;10392481;28;20022;-76
2023/05/02 21:25:37;;;;;;;0.00;0.00;;;;;;;-145.06;100.00;94749.91;10395234;28;20029;-77
2023/05/02 21:30:37;;;;;;;0.00;0.00;;;;;;;-145.06;100.00;94774.47;10398731;28;20095;-76
2023/05/02 21:35:38;;;;;;;0.00;0.00;;;;;;;-145.06;100.00;94852.22;10399543;28;20040;-76
2023/05/02 21:40:38;;;;;;;0.00;0.00;;;;;;;-145.06;100.00;94796.97;10397509;28;20021;-76
2023/05/02 21:45:45;;;;;;;0.00;0.00;;;;;;;-145.06;100.00;94831.75;10398845;28;20033;-76
2023/05/02 21:50:45;;;;;;;0.00;0.00;;;;;;;-145.06;100.00;94839.94;10400630;28;20017;-77
2023/05/02 21:55:46;;;;;;;0.00;0.00;;;;;;;-145.06;100.00;94794.91;10394913;28;20026;-77
2023/05/02 22:00:46;;;;;;;0.00;0.00;;;;;;;-145.06;100.00;94839.94;10391151;28;20087;-77
2023/05/02 22:05:48;;;;;;;0.00;0.00;;;;;;;-145.06;100.00;94807.19;10401488;28;20395;-77
2023/05/02 22:10:49;;;;;;;0.00;0.00;;;;;;;-145.06;100.00;94817.44;10396636;28;20373;-77
2023/05/02 22:15:49;;;;;;;0.00;0.00;;;;;;;-145.06;100.00;94807.19;10384107;28;20034;-76
2023/05/02 22:20:50;;;;;;;0.00;0.00;;;;;;;-145.06;100.00;94805.16;10387820;28;20392;-76
2023/05/02 22:25:50;;;;;;;0.00;0.00;;;;;;;-145.06;100.00;94790.81;10392188;28;20435;-76
2023/05/02 22:30:50;;;;;;;0.00;0.00;;;;;;;-145.06;100.00;94884.94;10392452;28;20026;-77
2023/05/02 22:35:51;;;;;;;0.00;0.00;;;;;;;-145.06;100.00;94776.50;10396437;28;20048;-76
2023/05/02 22:40:51;;;;;;;0.00;0.00;;;;;;;-145.06;100.00;94772.41;10390564;28;20057;-77
2023/05/02 22:45:52;;;;;;;0.00;0.00;;;;;;;-145.06;100.00;94751.94;10378883;28;20021;-76
2023/05/02 22:50:52;;;;;;;0.00;0.00;;;;;;;-145.06;100.00;94790.81;10386730;28;20825;-77
2023/05/02 22:55:52;;;;;;;0.00;0.00;;;;;;;-145.06;100.00;94758.09;10390713;28;20022;-77
2023/05/02 23:00:53;;;;;;;0.00;0.00;;;;;;;-145.06;100.00;94770.38;10393216;28;20638;-76